This is the latest recevied weather packets stored in our database for station/object K0APR. If no packets are shown the sender has not sent any weather packets the latest 10 day(s).
| Time | Temp. | Humidity | Pressure | Rain* | Wind** | Luminosity | Snow |
|---|---|---|---|---|---|---|---|
| 1777513439 | 11.11° C | 54% | 1016.1 hPa | 0 mm | - | 0 W/m² | - |
| 1777513136 | 11.67° C | 52% | 1016.5 hPa | 0 mm | - | 0 W/m² | - |
| 1777512831 | 11.67° C | 52% | 1016.5 hPa | 0 mm | - | 0 W/m² | - |
| 1777511922 | 11.67° C | 54% | 1016.5 hPa | 0 mm | - | 3 W/m² | - |
| 1777511620 | 11.67° C | 53% | 1016.5 hPa | 0 mm | - | 5 W/m² | - |
| 1777511013 | 12.22° C | 50% | 1016.1 hPa | 0 mm | - | 11 W/m² | - |
| 1777510406 | 12.78° C | 49% | 1016.1 hPa | 0 mm | - | 19 W/m² | - |
| 1777509192 | 12.78° C | 46% | 1016.1 hPa | 0 mm | - | 40 W/m² | - |
| 1777506465 | 13.33° C | 42% | 1016.1 hPa | 0 mm | - | 111 W/m² | - |
| 1777505857 | 13.33° C | 42% | 1016.1 hPa | 0 mm | - | 161 W/m² | - |
| 1777504947 | 13.89° C | 44% | 1016.1 hPa | 0 mm | - | 219 W/m² | - |
| 1777501919 | 13.33° C | 46% | 1016.5 hPa | 0 mm | - | 174 W/m² | - |
| 1777501616 | 12.78° C | 44% | 1016.5 hPa | 0 mm | - | 232 W/m² | - |
| 1777501011 | 12.78° C | 44% | 1016.5 hPa | 0 mm | - | 171 W/m² | - |
| 1777500708 | 12.78° C | 44% | 1016.8 hPa | 0 mm | - | 175 W/m² | - |
| 1777500405 | 12.78° C | 45% | 1016.5 hPa | 0 mm | - | 191 W/m² | - |
| 1777500101 | 13.33° C | 44% | 1016.8 hPa | 0 mm | - | 226 W/m² | - |
| 1777498586 | 13.33° C | 41% | 1016.5 hPa | 0 mm | - | 133 W/m² | - |
| 1777496159 | 13.89° C | 41% | 1016.8 hPa | 0 mm | - | 229 W/m² | - |
| 1777495855 | 13.89° C | 38% | 1016.5 hPa | 0 mm | - | 292 W/m² | - |
| 1777490699 | 12.78° C | 39% | 1017.5 hPa | 0 mm | - | 800 W/m² | - |
| 1777490093 | 13.33° C | 42% | 1017.5 hPa | 0 mm | - | 334 W/m² | - |
| 1777489790 | 13.33° C | 38% | 1017.5 hPa | 0 mm | - | 406 W/m² | - |
| 1777489488 | 12.78° C | 40% | 1017.5 hPa | 0 mm | - | 287 W/m² | - |
| 1777486460 | 13.33° C | 43% | 1018.3 hPa | 0 mm | - | 690 W/m² | - |
* Rain latest hour (hover to see other rain measurements)
** Current wind speed in m/s (hover to see current wind gust speed)